Ghotki Weather



Ghotki's Current Weather

Temprature 29.636o clear sky

clear sky

Rain: 0 %

Min Temprature29.636o
Max Temprature29.636o
Humidity27
Wind Speed2.08 m/h
Sun Rise05:52:11
Sun Set18:50:30
Current Time: 21-Apr-2019 05:25:30
Lat/Lon: 28.01, 69.32




Ghotki's Geo Location



Ghotki's Weather Forecast

Time Overall Temp Min Temp Max Temp Humidity Wind Speed Rain
21-Apr-2019 (Sun)
08:00:00 clear sky 32.440 32.439 32.440 28 3.58 m/h 0 %
11:00:00 clear sky 38.350 38.350 38.350 19 4.24 m/h 0 %
14:00:00 clear sky 41.250 41.250 41.250 14 3.71 m/h 0 %
17:00:00 clear sky 41.550 41.550 41.550 12 3.07 m/h 0 %
20:00:00 clear sky 37.450 37.450 37.450 15 2.71 m/h 0 %
23:00:00 clear sky 35.940 35.940 35.940 17 5.22 m/h 0 %
22-Apr-2019 (Mon)
02:00:00 clear sky 33.670 33.670 33.670 25 5.36 m/h 0 %
05:00:00 clear sky 31.194 31.194 31.194 30 3.43 m/h 0 %
08:00:00 clear sky 33.916 33.916 33.916 26 4.18 m/h 0 %
11:00:00 clear sky 40.420 40.420 40.420 13 3.13 m/h 0 %
14:00:00 clear sky 43.415 43.415 43.415 9 2.94 m/h 0 %
17:00:00 clear sky 43.431 43.431 43.431 8 2.77 m/h 0 %
20:00:00 few clouds 39.150 39.150 39.150 11 3.06 m/h 0 %
23:00:00 few clouds 37.596 37.596 37.596 13 7 m/h 0 %
23-Apr-2019 (Tue)
02:00:00 clear sky 34.677 34.677 34.677 20 6.15 m/h 0 %
05:00:00 clear sky 32.586 32.586 32.586 30 4.99 m/h 0 %
08:00:00 clear sky 35.017 35.017 35.017 27 4.73 m/h 0 %
11:00:00 scattered clouds 41.950 41.950 41.950 14 5.19 m/h 0 %
14:00:00 scattered clouds 44.750 44.750 44.750 9 6.1 m/h 0 %
17:00:00 few clouds 43.950 43.950 43.950 7 5.76 m/h 0 %
20:00:00 clear sky 39.428 39.428 39.428 8 4.92 m/h 0 %
23:00:00 clear sky 37.050 37.050 37.050 15 7.45 m/h 0 %
24-Apr-2019 (Wed)
02:00:00 clear sky 34.282 34.282 34.282 24 6.69 m/h 0 %
05:00:00 clear sky 31.974 31.974 31.974 32 5.14 m/h 0 %
08:00:00 clear sky 33.450 33.450 33.450 31 4.25 m/h 0 %
11:00:00 clear sky 39.409 39.409 39.409 20 2.37 m/h 0 %
14:00:00 clear sky 43.050 43.050 43.050 13 3.3 m/h 0 %
17:00:00 few clouds 42.850 42.850 42.850 12 3.66 m/h 0 %
20:00:00 light rain 35.955 35.955 35.955 24 8.28 m/h 200 %
23:00:00 light rain 34.645 34.645 34.645 28 6.38 m/h 194 %
25-Apr-2019 (Thu)
02:00:00 light rain 33.550 33.550 33.550 32 3.81 m/h 156 %
05:00:00 broken clouds 31.812 31.812 31.812 34 6.29 m/h 0 %
08:00:00 clear sky 33.320 33.320 33.320 33 6.17 m/h 0 %
11:00:00 clear sky 37.590 37.590 37.590 26 4.53 m/h 0 %
14:00:00 clear sky 40.150 40.150 40.150 20 1.75 m/h 0 %
17:00:00 few clouds 40.311 40.311 40.311 16 0.55 m/h 0 %
20:00:00 scattered clouds 38.025 38.025 38.025 19 2.62 m/h 0 %
23:00:00 few clouds 35.943 35.943 35.943 21 3.1 m/h 0 %
26-Apr-2019 (Fri)
02:00:00 clear sky 34.132 34.132 34.132 23 1.42 m/h 0 %
05:00:00 clear sky 32.446 32.446 32.446 25 3.43 m/h 0 %

Famous Cities (60)